Time;durP1;ratioP1;P1;durP2;ratioP2;P2;SDS_P1;SDS_P2;PMS_P1;PMS_P2;Temp;Humidity;BMP_temperature;BMP_pressure;BME280_temperature;BME280_humidity;BME280_pressure;Samples;Min_cycle;Max_cycle;Signal;HPM_P1;HPM_P2
2023/12/14 00:00:09;;;;;;;756.70;699.88;;;3.70;99.90;;;;;;5069897;28;20041;-83
2023/12/14 00:02:34;;;;;;;784.85;726.25;;;4.80;99.90;;;;;;5058319;28;20032;-83
2023/12/14 00:05:00;;;;;;;750.95;697.45;;;4.80;99.90;;;;;;5079649;28;20028;-83
2023/12/14 00:07:25;;;;;;;748.17;694.70;;;4.70;99.90;;;;;;5057211;28;20060;-83
2023/12/14 00:09:51;;;;;;;778.25;720.70;;;4.80;99.90;;;;;;5074096;28;20033;-83
2023/12/14 00:12:17;;;;;;;784.53;724.80;;;4.10;99.90;;;;;;5072601;28;20045;-83
2023/12/14 00:14:42;;;;;;;791.30;730.88;;;5.60;99.90;;;;;;5058534;28;20068;-82
2023/12/14 00:17:08;;;;;;;755.60;702.08;;;4.70;99.90;;;;;;5069556;28;20045;-83
2023/12/14 00:19:34;;;;;;;772.78;716.28;;;5.60;99.90;;;;;;5057300;28;20044;-83
2023/12/14 00:22:00;;;;;;;793.97;733.78;;;4.70;99.90;;;;;;5072734;28;20045;-83
2023/12/14 00:24:25;;;;;;;753.60;698.95;;;4.80;99.90;;;;;;5077522;28;20125;-83
2023/12/14 00:26:51;;;;;;;782.20;721.42;;;4.80;99.90;;;;;;5059640;28;20091;-83
2023/12/14 00:29:16;;;;;;;764.28;708.13;;;5.90;99.90;;;;;;5078828;28;20135;-83
2023/12/14 00:31:42;;;;;;;775.65;717.20;;;4.70;99.90;;;;;;5052541;28;20185;-83
2023/12/14 00:34:07;;;;;;;732.00;677.47;;;5.00;99.90;;;;;;5075918;28;20128;-84
2023/12/14 00:36:33;;;;;;;760.53;703.88;;;4.70;99.90;;;;;;5076893;28;20058;-83
2023/12/14 00:38:59;;;;;;;758.05;703.70;;;4.70;99.90;;;;;;5052880;28;20041;-83
2023/12/14 00:41:24;;;;;;;773.83;719.38;;;5.60;99.90;;;;;;5063361;28;20064;-83
2023/12/14 00:43:50;;;;;;;750.90;697.15;;;4.70;99.90;;;;;;5072062;28;20047;-83
2023/12/14 00:46:15;;;;;;;752.05;697.88;;;5.60;99.90;;;;;;5057208;28;20045;-83
2023/12/14 00:48:41;;;;;;;742.17;691.38;;;5.90;99.90;;;;;;5081274;28;20044;-84
2023/12/14 00:51:07;;;;;;;763.95;707.58;;;4.70;99.90;;;;;;5061858;28;20028;-83
2023/12/14 00:53:32;;;;;;;739.83;684.80;;;5.90;99.90;;;;;;5070643;28;20033;-82
2023/12/14 00:55:58;;;;;;;736.05;683.50;;;5.90;99.90;;;;;;5050332;28;20051;-83
2023/12/14 00:58:24;;;;;;;764.15;708.20;;;5.70;99.90;;;;;;5071486;28;20041;-84
2023/12/14 01:00:49;;;;;;;827.17;760.63;;;6.00;99.90;;;;;;5075120;28;20036;-83
2023/12/14 01:03:15;;;;;;;751.00;696.30;;;5.40;99.90;;;;;;5056961;28;20045;-83
2023/12/14 01:05:41;;;;;;;726.35;674.75;;;5.30;99.90;;;;;;5052391;28;20032;-83
2023/12/14 01:08:06;;;;;;;743.22;690.45;;;5.90;99.90;;;;;;5056373;28;20099;-83
2023/12/14 01:10:33;;;;;;;738.65;685.75;;;4.70;99.90;;;;;;5072423;28;20044;-84
2023/12/14 01:12:59;;;;;;;766.83;710.60;;;5.90;99.90;;;;;;5059609;28;20071;-84
2023/12/14 01:15:24;;;;;;;762.45;706.00;;;6.00;99.90;;;;;;5054619;28;20041;-84
2023/12/14 01:17:50;;;;;;;728.28;676.40;;;4.90;99.90;;;;;;5072772;28;20037;-84
2023/12/14 01:20:15;;;;;;;721.67;670.38;;;4.60;99.90;;;;;;5060253;28;20071;-83
2023/12/14 01:22:41;;;;;;;762.50;704.03;;;5.80;99.90;;;;;;5093443;28;20095;-83
2023/12/14 01:25:07;;;;;;;772.05;716.60;;;5.30;99.90;;;;;;5075648;28;20044;-84
2023/12/14 01:27:32;;;;;;;748.65;695.88;;;4.50;99.90;;;;;;5080277;28;20048;-84
2023/12/14 01:29:58;;;;;;;802.30;736.17;;;4.70;99.90;;;;;;5070358;28;20033;-83
2023/12/14 01:32:24;;;;;;;751.92;695.58;;;5.10;99.90;;;;;;5077718;28;20033;-84
2023/12/14 01:34:49;;;;;;;723.78;671.67;;;4.60;99.90;;;;;;5055000;28;20047;-84
2023/12/14 01:37:15;;;;;;;711.88;661.45;;;5.50;99.90;;;;;;5080302;28;20037;-84
2023/12/14 01:39:41;;;;;;;716.50;665.55;;;4.60;99.90;;;;;;5060389;28;20063;-83
2023/12/14 01:42:07;;;;;;;715.92;662.92;;;5.00;99.90;;;;;;5062099;28;20036;-83
2023/12/14 01:44:33;;;;;;;717.40;664.38;;;4.60;99.90;;;;;;5056001;28;20041;-83
2023/12/14 01:46:58;;;;;;;712.90;662.67;;;5.40;99.90;;;;;;5072361;28;20032;-83
2023/12/14 01:49:24;;;;;;;707.13;657.30;;;4.60;99.90;;;;;;5052214;28;20048;-84
2023/12/14 01:51:51;;;;;;;737.50;683.22;;;5.60;99.90;;;;;;5059543;28;20032;-83
2023/12/14 01:54:16;;;;;;;696.03;648.08;;;4.60;99.90;;;;;;5059778;28;20040;-83
2023/12/14 01:56:42;;;;;;;718.78;668.63;;;4.60;99.90;;;;;;5060433;28;20067;-84
2023/12/14 01:59:08;;;;;;;694.65;647.78;;;5.40;99.90;;;;;;5061027;28;20063;-85
2023/12/14 02:01:51;;;;;;;715.72;664.53;;;6.00;99.90;;;;;;5055153;28;20032;-83
2023/12/14 02:04:17;;;;;;;719.15;669.08;;;4.70;99.90;;;;;;5075779;28;20075;-83
2023/12/14 02:07:23;;;;;;;711.75;661.83;;;4.60;99.90;;;;;;5046644;28;20068;-83
2023/12/14 02:09:50;;;;;;;715.90;666.25;;;4.60;99.90;;;;;;5038991;28;20111;-84
2023/12/14 02:12:16;;;;;;;782.50;723.85;;;5.20;99.90;;;;;;5062022;28;20041;-83
2023/12/14 02:14:42;;;;;;;760.75;704.70;;;5.50;99.90;;;;;;5079930;28;20040;-83
2023/12/14 02:17:08;;;;;;;770.38;713.17;;;4.60;99.90;;;;;;5075006;28;20299;-83
2023/12/14 02:19:33;;;;;;;763.88;706.15;;;4.60;99.90;;;;;;5057173;28;20049;-83
2023/12/14 02:21:59;;;;;;;760.58;703.83;;;5.20;99.90;;;;;;5079047;28;20044;-83
2023/12/14 02:24:25;;;;;;;707.08;657.30;;;4.60;99.90;;;;;;5059518;28;20033;-83
2023/12/14 02:26:50;;;;;;;756.55;701.60;;;5.30;99.90;;;;;;5075309;28;20037;-84
2023/12/14 02:29:16;;;;;;;732.88;679.00;;;5.20;99.90;;;;;;5063913;28;20088;-83
2023/12/14 02:31:42;;;;;;;704.63;652.58;;;4.80;99.90;;;;;;5060913;28;20040;-83
2023/12/14 02:34:07;;;;;;;751.50;695.45;;;4.20;99.90;;;;;;5071146;28;20044;-83
2023/12/14 02:36:35;;;;;;;761.03;702.13;;;6.00;99.90;;;;;;5062299;28;20067;-84
2023/12/14 02:39:00;;;;;;;720.00;668.17;;;5.20;99.90;;;;;;5075163;28;20100;-84
2023/12/14 02:41:26;;;;;;;719.70;665.80;;;5.80;99.90;;;;;;5092879;28;20032;-84
2023/12/14 02:43:52;;;;;;;712.42;661.15;;;5.60;99.90;;;;;;5062919;28;20040;-83
2023/12/14 02:46:18;;;;;;;706.15;654.28;;;4.60;99.90;;;;;;5071991;28;20083;-83
2023/12/14 02:48:44;;;;;;;771.03;711.05;;;5.50;99.90;;;;;;5060900;28;20036;-83
2023/12/14 02:51:17;;;;;;;765.75;706.90;;;6.00;99.90;;;;;;5090696;28;20116;-83
2023/12/14 02:53:42;;;;;;;739.78;686.83;;;4.60;99.90;;;;;;5076774;28;20029;-84
2023/12/14 02:56:10;;;;;;;718.78;666.10;;;5.10;99.90;;;;;;5063607;28;20045;-83
2023/12/14 02:58:36;;;;;;;821.85;758.55;;;4.60;99.90;;;;;;5036332;28;20047;-83
2023/12/14 03:01:02;;;;;;;723.85;671.30;;;5.90;99.90;;;;;;5086535;28;20060;-83
2023/12/14 03:03:28;;;;;;;725.10;672.45;;;4.60;99.90;;;;;;5079283;28;20036;-84
2023/12/14 03:05:54;;;;;;;759.67;704.30;;;4.10;99.90;;;;;;5059573;28;20378;-83
2023/12/14 03:08:20;;;;;;;804.67;744.83;;;4.60;99.90;;;;;;5077096;28;20036;-84
2023/12/14 03:10:46;;;;;;;790.03;731.28;;;5.40;99.90;;;;;;5064839;28;20469;-83
2023/12/14 03:13:12;;;;;;;784.67;723.58;;;4.60;99.90;;;;;;5057171;28;20112;-84
2023/12/14 03:15:37;;;;;;;754.60;699.50;;;5.10;99.90;;;;;;5043942;28;20049;-84
2023/12/14 03:18:03;;;;;;;772.65;714.70;;;4.80;99.90;;;;;;5064173;28;20041;-83
2023/12/14 03:20:30;;;;;;;764.40;706.58;;;5.10;99.90;;;;;;5061337;28;20056;-84
2023/12/14 03:22:58;;;;;;;754.55;699.40;;;4.60;99.90;;;;;;5071334;28;20041;-84
2023/12/14 03:25:24;;;;;;;770.78;711.22;;;4.60;99.90;;;;;;5059146;28;20040;-83
2023/12/14 03:27:50;;;;;;;760.15;703.72;;;4.60;99.90;;;;;;5056538;28;20570;-84
2023/12/14 03:30:15;;;;;;;806.10;746.53;;;4.70;99.90;;;;;;5060749;28;20037;-83
2023/12/14 03:32:42;;;;;;;734.30;679.88;;;4.60;99.90;;;;;;5064741;28;20094;-83
2023/12/14 03:35:08;;;;;;;763.22;706.40;;;5.30;99.90;;;;;;5062407;28;20044;-84
2023/12/14 03:37:34;;;;;;;755.17;699.38;;;4.60;99.90;;;;;;5061373;28;20032;-83
2023/12/14 03:40:00;;;;;;;792.67;732.75;;;4.60;99.90;;;;;;5094942;28;20068;-83
2023/12/14 03:42:25;;;;;;;755.67;699.28;;;4.60;99.90;;;;;;5056783;28;20039;-83
2023/12/14 03:44:51;;;;;;;773.10;714.97;;;4.70;99.90;;;;;;5061182;28;20041;-83
2023/12/14 03:47:17;;;;;;;778.42;720.30;;;4.60;99.90;;;;;;5060292;28;20044;-83
2023/12/14 03:49:43;;;;;;;771.53;713.20;;;5.60;99.90;;;;;;5072995;28;20115;-83
2023/12/14 03:52:09;;;;;;;788.95;729.80;;;6.00;99.90;;;;;;5074508;28;20382;-83
2023/12/14 03:54:35;;;;;;;797.75;738.28;;;4.60;99.90;;;;;;5056980;28;20040;-83
2023/12/14 03:57:01;;;;;;;779.78;719.83;;;4.70;99.90;;;;;;5072885;28;20170;-83
2023/12/14 03:59:26;;;;;;;825.90;761.08;;;6.00;99.90;;;;;;5055407;28;20040;-83
2023/12/14 04:01:52;;;;;;;814.75;753.50;;;4.60;99.90;;;;;;5077360;28;20119;-83
2023/12/14 04:04:18;;;;;;;802.17;740.70;;;5.50;99.90;;;;;;5057106;28;20044;-83
2023/12/14 04:06:44;;;;;;;829.65;764.60;;;5.90;99.90;;;;;;5073202;28;20032;-83
2023/12/14 04:09:11;;;;;;;802.58;744.60;;;4.60;99.90;;;;;;5055777;28;20123;-83
2023/12/14 04:11:37;;;;;;;804.42;742.47;;;4.60;99.90;;;;;;5075173;28;20036;-83
2023/12/14 04:14:03;;;;;;;785.13;725.95;;;5.30;99.90;;;;;;5056692;28;20036;-83
2023/12/14 04:16:29;;;;;;;777.67;719.33;;;5.80;99.90;;;;;;5051730;28;20056;-84
2023/12/14 04:18:56;;;;;;;802.92;741.47;;;4.60;99.90;;;;;;5076168;28;20072;-83
2023/12/14 04:21:23;;;;;;;788.35;728.58;;;4.60;99.90;;;;;;5056770;28;20048;-84
2023/12/14 04:23:48;;;;;;;837.78;771.30;;;4.60;99.90;;;;;;5063004;28;20040;-84
2023/12/14 04:26:14;;;;;;;762.05;706.33;;;3.50;99.90;;;;;;5062460;28;20040;-83
2023/12/14 04:28:40;;;;;;;787.25;729.78;;;3.50;99.90;;;;;;5060394;28;20087;-83
2023/12/14 04:31:06;;;;;;;748.47;694.40;;;4.50;99.90;;;;;;5056136;28;20072;-83
2023/12/14 04:33:31;;;;;;;785.63;727.28;;;4.50;99.90;;;;;;5077931;28;20044;-83
2023/12/14 04:35:57;;;;;;;803.90;741.50;;;4.50;99.90;;;;;;5061275;28;20043;-83
2023/12/14 04:38:23;;;;;;;804.33;741.67;;;4.50;99.90;;;;;;5056256;28;20039;-83
2023/12/14 04:40:48;;;;;;;813.95;752.72;;;5.50;99.90;;;;;;5043949;28;20040;-83
2023/12/14 04:43:15;;;;;;;788.55;730.00;;;4.50;99.90;;;;;;5073931;28;20044;-83
2023/12/14 04:45:40;;;;;;;795.88;736.53;;;5.50;99.90;;;;;;5054873;28;20025;-84
2023/12/14 04:48:08;;;;;;;763.38;706.55;;;5.70;99.90;;;;;;5073913;28;20036;-83
2023/12/14 04:50:33;;;;;;;794.13;733.92;;;4.60;99.90;;;;;;5089629;28;20123;-83
2023/12/14 04:52:59;;;;;;;783.45;726.00;;;4.50;99.90;;;;;;5057370;28;20048;-83
2023/12/14 04:55:25;;;;;;;815.13;754.33;;;4.50;99.90;;;;;;5068808;28;20048;-83
2023/12/14 04:57:51;;;;;;;800.72;740.22;;;4.60;99.90;;;;;;5067744;28;20045;-83
2023/12/14 05:00:17;;;;;;;764.42;710.28;;;4.60;99.90;;;;;;5081211;28;20064;-82
2023/12/14 05:02:47;;;;;;;785.30;728.20;;;4.60;99.90;;;;;;5055676;28;20473;-83
2023/12/14 05:05:13;;;;;;;834.00;767.42;;;5.00;99.90;;;;;;5069617;28;20048;-83
2023/12/14 05:07:39;;;;;;;791.92;734.58;;;4.60;99.90;;;;;;5052701;28;20037;-83
2023/12/14 05:10:05;;;;;;;823.03;760.38;;;5.30;99.90;;;;;;5052417;28;20040;-83
2023/12/14 05:12:31;;;;;;;768.15;713.45;;;4.60;99.90;;;;;;5059998;28;20037;-84
2023/12/14 05:14:58;;;;;;;822.42;759.97;;;5.40;99.90;;;;;;5069974;28;20119;-84
2023/12/14 05:17:23;;;;;;;865.05;793.95;;;4.00;99.90;;;;;;5052056;28;20044;-83
2023/12/14 05:19:49;;;;;;;830.20;766.50;;;5.80;99.90;;;;;;5075462;28;20055;-84
2023/12/14 05:22:15;;;;;;;809.03;747.95;;;4.60;99.90;;;;;;5051017;28;20051;-84
2023/12/14 05:24:41;;;;;;;763.97;708.67;;;4.60;99.90;;;;;;5076671;28;20060;-84
2023/12/14 05:27:07;;;;;;;790.28;731.58;;;4.70;99.90;;;;;;5054962;28;20068;-84
2023/12/14 05:29:33;;;;;;;782.15;724.88;;;4.60;99.90;;;;;;5055694;28;20100;-83
2023/12/14 05:31:59;;;;;;;816.63;754.85;;;4.60;99.90;;;;;;5060065;28;20061;-84
2023/12/14 05:34:24;;;;;;;805.35;744.60;;;4.60;99.90;;;;;;5062977;28;20044;-84
2023/12/14 05:36:50;;;;;;;813.97;751.70;;;5.90;99.90;;;;;;5059055;28;20070;-84
2023/12/14 05:39:19;;;;;;;809.03;748.03;;;5.60;99.90;;;;;;5076241;28;20090;-85
2023/12/14 05:41:44;;;;;;;788.15;727.95;;;5.80;99.90;;;;;;5058987;28;20040;-84
2023/12/14 05:44:10;;;;;;;823.03;758.17;;;4.60;99.90;;;;;;5078946;28;20041;-84
2023/12/14 05:46:36;;;;;;;799.78;740.22;;;5.20;99.90;;;;;;5074792;28;20044;-84
2023/12/14 05:49:01;;;;;;;812.95;752.50;;;4.60;99.90;;;;;;5080487;28;20032;-84
2023/12/14 05:51:32;;;;;;;790.63;732.47;;;4.60;99.90;;;;;;5059065;28;20088;-84
2023/12/14 05:53:58;;;;;;;817.42;754.08;;;4.60;99.90;;;;;;5051069;28;20047;-84
2023/12/14 05:56:25;;;;;;;779.60;723.05;;;3.50;99.90;;;;;;5074305;28;20119;-84
2023/12/14 05:58:51;;;;;;;802.97;744.72;;;4.20;99.90;;;;;;5072490;28;20073;-84
2023/12/14 06:01:18;;;;;;;808.25;747.60;;;5.70;99.90;;;;;;5054164;28;20044;-83
2023/12/14 06:03:44;;;;;;;777.35;719.78;;;5.20;99.90;;;;;;5056053;28;20048;-81
2023/12/14 06:06:10;;;;;;;787.95;730.80;;;4.60;99.90;;;;;;5073786;28;20122;-85
2023/12/14 06:08:36;;;;;;;833.63;768.13;;;4.60;99.90;;;;;;5053534;28;20037;-82
2023/12/14 06:11:01;;;;;;;804.97;744.13;;;4.80;99.90;;;;;;5086827;28;20041;-85
2023/12/14 06:13:27;;;;;;;787.75;730.60;;;5.50;99.90;;;;;;5068404;28;20040;-81
2023/12/14 06:15:52;;;;;;;775.72;719.22;;;4.60;99.90;;;;;;5075005;28;20043;-81
2023/12/14 06:18:18;;;;;;;792.13;734.30;;;6.00;99.90;;;;;;5070224;28;20044;-81
2023/12/14 06:20:44;;;;;;;806.38;745.17;;;4.60;99.90;;;;;;5059219;28;20525;-82
2023/12/14 06:23:09;;;;;;;803.13;743.40;;;4.70;99.90;;;;;;5055110;28;20101;-83
2023/12/14 06:25:38;;;;;;;766.35;711.58;;;4.60;99.90;;;;;;5056992;28;20118;-83
2023/12/14 06:28:03;;;;;;;827.83;762.20;;;4.60;99.90;;;;;;5047999;28;20040;-83
2023/12/14 06:30:29;;;;;;;801.53;742.50;;;5.50;99.90;;;;;;5069162;28;20096;-82
2023/12/14 06:32:55;;;;;;;798.97;741.42;;;4.60;99.90;;;;;;5059991;28;20516;-82
2023/12/14 06:35:21;;;;;;;793.63;733.78;;;4.60;99.90;;;;;;5082070;28;20589;-83
2023/12/14 06:37:49;;;;;;;798.95;740.78;;;4.60;99.90;;;;;;5073186;28;20043;-83
2023/12/14 06:40:14;;;;;;;809.50;748.22;;;4.60;99.90;;;;;;5079601;28;20032;-82
2023/12/14 06:42:42;;;;;;;786.53;730.03;;;4.60;99.90;;;;;;5073757;28;20064;-79
2023/12/14 06:45:08;;;;;;;759.28;704.08;;;5.80;99.90;;;;;;5050200;28;20051;-80
2023/12/14 06:47:33;;;;;;;775.55;717.92;;;4.60;99.90;;;;;;5072169;28;20042;-80
2023/12/14 06:49:59;;;;;;;800.83;740.88;;;4.60;99.90;;;;;;5070345;28;20077;-80
2023/12/14 06:52:25;;;;;;;786.88;728.72;;;4.60;99.90;;;;;;5054005;28;20041;-80
2023/12/14 06:54:50;;;;;;;787.15;728.38;;;5.00;99.90;;;;;;5068840;28;20054;-81
2023/12/14 06:57:16;;;;;;;815.78;752.70;;;5.50;99.90;;;;;;5093999;28;20088;-80
2023/12/14 06:59:42;;;;;;;775.88;720.55;;;5.50;99.90;;;;;;5088649;28;20047;-80
2023/12/14 07:02:10;;;;;;;822.97;757.58;;;4.60;99.90;;;;;;5074774;28;20045;-80
2023/12/14 07:04:36;;;;;;;812.97;750.60;;;4.60;99.90;;;;;;5056213;28;20358;-80
2023/12/14 07:07:01;;;;;;;801.88;742.28;;;4.60;99.90;;;;;;5069913;28;20028;-84
2023/12/14 07:09:27;;;;;;;797.72;738.90;;;4.20;99.90;;;;;;5057295;28;20033;-84
2023/12/14 07:11:53;;;;;;;798.13;739.50;;;4.60;99.90;;;;;;5062786;28;20060;-84
2023/12/14 07:14:19;;;;;;;815.92;751.60;;;5.00;99.90;;;;;;5057032;28;20497;-81
2023/12/14 07:16:44;;;;;;;798.13;738.42;;;6.00;99.90;;;;;;5063601;28;20045;-84
2023/12/14 07:19:13;;;;;;;815.60;752.67;;;4.70;99.90;;;;;;5055767;28;20060;-83
2023/12/14 07:21:38;;;;;;;808.95;745.83;;;5.40;99.90;;;;;;5058179;28;20071;-81
2023/12/14 07:24:04;;;;;;;885.30;806.55;;;4.60;99.90;;;;;;5058938;28;20489;-81
2023/12/14 07:26:30;;;;;;;809.83;746.13;;;4.60;99.90;;;;;;5081351;28;20046;-83
2023/12/14 07:28:56;;;;;;;794.50;735.03;;;4.60;99.90;;;;;;5053289;28;20056;-83
2023/12/14 07:31:21;;;;;;;829.13;760.88;;;5.00;99.90;;;;;;5070648;28;20048;-81
2023/12/14 07:33:47;;;;;;;792.45;732.88;;;5.40;99.90;;;;;;5060116;28;20043;-84
2023/12/14 07:36:18;;;;;;;844.67;773.55;;;5.30;99.90;;;;;;5078029;28;20059;-85
2023/12/14 07:38:46;;;;;;;752.05;694.88;;;4.70;99.90;;;;;;5059404;28;20130;-83
2023/12/14 07:41:12;;;;;;;782.75;725.15;;;5.70;99.90;;;;;;5076274;28;20475;-84
2023/12/14 07:43:37;;;;;;;840.92;770.47;;;5.80;99.90;;;;;;5056722;28;20559;-84
2023/12/14 07:46:03;;;;;;;796.75;735.25;;;5.00;99.90;;;;;;5050418;28;20045;-82
2023/12/14 07:48:29;;;;;;;833.78;765.33;;;4.70;99.90;;;;;;5070411;28;20024;-83
2023/12/14 07:50:55;;;;;;;803.25;739.15;;;4.70;99.90;;;;;;5050629;28;20044;-84
2023/12/14 07:53:20;;;;;;;832.42;763.72;;;4.70;99.90;;;;;;5068109;28;20045;-82
2023/12/14 07:55:46;;;;;;;826.70;757.83;;;4.70;99.90;;;;;;5052532;28;20059;-84
2023/12/14 07:58:13;;;;;;;747.28;693.33;;;5.80;99.90;;;;;;5066015;28;20037;-82
2023/12/14 08:00:38;;;;;;;791.35;731.70;;;4.70;99.90;;;;;;5074121;28;20055;-82
2023/12/14 08:03:05;;;;;;;833.75;763.83;;;4.70;99.90;;;;;;5066619;28;20033;-82
2023/12/14 08:05:31;;;;;;;763.67;706.03;;;4.70;99.90;;;;;;5084903;28;20389;-84
2023/12/14 08:07:56;;;;;;;797.72;737.63;;;4.80;99.90;;;;;;5058884;28;20106;-83
2023/12/14 08:10:22;;;;;;;803.78;741.97;;;4.80;99.90;;;;;;5074270;28;20056;-83
2023/12/14 08:12:48;;;;;;;836.75;767.30;;;4.80;99.90;;;;;;5055179;28;20058;-84
2023/12/14 08:15:16;;;;;;;841.03;768.55;;;6.10;99.90;;;;;;5056269;28;20033;-81
2023/12/14 08:17:42;;;;;;;784.05;724.72;;;4.80;99.90;;;;;;5049737;28;20041;-82
2023/12/14 08:20:08;;;;;;;791.05;730.20;;;4.70;99.90;;;;;;5074661;28;20052;-82
2023/12/14 08:22:35;;;;;;;757.08;700.78;;;4.80;99.90;;;;;;5072072;28;20037;-82
2023/12/14 08:25:01;;;;;;;791.60;730.67;;;4.70;99.90;;;;;;5053971;28;20037;-81
2023/12/14 08:27:26;;;;;;;802.13;741.53;;;4.80;99.90;;;;;;5088034;28;20036;-82
2023/12/14 08:29:52;;;;;;;795.10;732.63;;;4.60;99.90;;;;;;5073789;28;20292;-81
2023/12/14 08:32:17;;;;;;;795.47;732.40;;;5.40;99.90;;;;;;5057918;28;20121;-83
2023/12/14 08:34:43;;;;;;;781.78;721.55;;;4.80;99.90;;;;;;5054497;28;20097;-83
2023/12/14 08:37:09;;;;;;;804.45;738.78;;;5.70;99.90;;;;;;5095577;28;20036;-84
2023/12/14 08:39:34;;;;;;;780.65;718.65;;;5.40;99.90;;;;;;5068019;28;21466;-80
2023/12/14 08:42:00;;;;;;;785.65;723.60;;;4.80;99.90;;;;;;5043108;28;20087;-80
2023/12/14 08:44:26;;;;;;;794.15;731.13;;;5.90;99.90;;;;;;5044615;28;20107;-83
2023/12/14 08:46:52;;;;;;;771.42;710.58;;;5.40;99.90;;;;;;5077420;28;20048;-84
2023/12/14 08:49:18;;;;;;;747.05;691.42;;;6.10;99.90;;;;;;5051776;28;20493;-83
2023/12/14 08:51:43;;;;;;;858.78;785.80;;;4.80;99.90;;;;;;5061975;28;20033;-83
2023/12/14 08:54:09;;;;;;;758.42;700.75;;;5.90;99.90;;;;;;5055050;28;20045;-84
2023/12/14 08:56:36;;;;;;;852.90;781.05;;;5.20;99.90;;;;;;5057082;28;20040;-83
2023/12/14 08:59:03;;;;;;;837.60;763.92;;;4.80;99.90;;;;;;5059276;28;20037;-83
2023/12/14 09:01:29;;;;;;;817.35;751.25;;;6.10;99.90;;;;;;5064099;28;20100;-84
2023/12/14 09:03:55;;;;;;;833.53;763.42;;;4.90;99.90;;;;;;5077564;28;20055;-83
2023/12/14 09:06:20;;;;;;;769.72;709.03;;;5.40;99.90;;;;;;5080391;28;20041;-83
2023/12/14 09:08:49;;;;;;;798.33;732.00;;;5.90;99.90;;;;;;5078461;28;20046;-84
2023/12/14 09:11:15;;;;;;;812.92;748.22;;;6.50;99.90;;;;;;5075889;28;20460;-84
2023/12/14 09:13:42;;;;;;;856.88;782.92;;;5.40;99.90;;;;;;5058798;28;20047;-84
2023/12/14 09:16:08;;;;;;;782.13;719.72;;;5.60;99.90;;;;;;5063900;28;20045;-84
2023/12/14 09:18:33;;;;;;;798.63;732.78;;;5.10;99.90;;;;;;5059782;28;20059;-85
2023/12/14 09:21:00;;;;;;;768.75;706.50;;;5.10;99.90;;;;;;5081277;28;20049;-84
2023/12/14 09:23:25;;;;;;;776.58;715.22;;;5.10;99.90;;;;;;5058285;28;20528;-84
2023/12/14 09:25:51;;;;;;;801.63;736.28;;;6.40;99.90;;;;;;5056661;28;20033;-85
2023/12/14 09:28:18;;;;;;;841.08;767.83;;;5.20;99.90;;;;;;5063021;28;20040;-85
2023/12/14 09:30:44;;;;;;;845.40;772.25;;;5.20;99.90;;;;;;5083731;28;20032;-84
2023/12/14 09:33:10;;;;;;;776.38;717.42;;;5.20;99.90;;;;;;5061873;28;20040;-84
2023/12/14 09:35:36;;;;;;;793.38;732.20;;;6.20;99.90;;;;;;5094665;28;20028;-84
2023/12/14 09:38:04;;;;;;;810.20;748.78;;;6.60;99.90;;;;;;5070478;28;20048;-82
2023/12/14 09:40:30;;;;;;;873.67;801.30;;;5.20;99.90;;;;;;5077288;28;20317;-82
2023/12/14 09:42:56;;;;;;;845.20;778.60;;;6.60;99.90;;;;;;5070232;28;20639;-82
2023/12/14 09:45:29;;;;;;;865.78;796.22;;;5.90;99.90;;;;;;5080251;28;20041;-82
2023/12/14 09:47:57;;;;;;;862.63;791.33;;;5.40;99.90;;;;;;5075878;28;20144;-82
2023/12/14 09:50:23;;;;;;;858.53;790.97;;;6.00;99.90;;;;;;5049819;28;20033;-85
2023/12/14 09:52:49;;;;;;;818.17;754.90;;;6.60;99.90;;;;;;5057906;28;20033;-83
2023/12/14 09:55:18;;;;;;;881.88;807.58;;;6.30;99.90;;;;;;5080974;28;20044;-83
2023/12/14 09:57:44;;;;;;;831.92;769.13;;;5.30;99.90;;;;;;5066963;28;20033;-84
2023/12/14 10:00:13;;;;;;;862.38;790.78;;;5.30;99.90;;;;;;5058588;28;20048;-83
2023/12/14 10:02:39;;;;;;;808.03;744.53;;;5.30;99.90;;;;;;5079243;28;20079;-87
2023/12/14 10:05:10;;;;;;;816.55;754.95;;;5.80;99.90;;;;;;5080266;28;20071;-84
2023/12/14 10:07:44;;;;;;;895.00;814.22;;;6.00;99.90;;;;;;5058981;28;20032;-83
2023/12/14 10:10:13;;;;;;;836.80;772.47;;;5.30;99.90;;;;;;5059415;28;20033;-85
2023/12/14 10:12:55;;;;;;;875.17;799.63;;;5.30;99.90;;;;;;5064989;28;20032;-85
2023/12/14 10:15:23;;;;;;;786.22;726.95;;;5.40;99.90;;;;;;5049580;28;20048;-82
2023/12/14 10:17:54;;;;;;;804.42;740.03;;;5.40;99.90;;;;;;5062128;28;20060;-84
2023/12/14 10:20:23;;;;;;;809.78;742.35;;;5.50;99.90;;;;;;5063661;28;20055;-83
2023/12/14 10:22:50;;;;;;;848.22;777.97;;;6.30;99.90;;;;;;5059543;28;20040;-84
2023/12/14 10:25:18;;;;;;;825.80;759.05;;;6.40;99.90;;;;;;5062440;28;20051;-86
2023/12/14 10:27:47;;;;;;;800.00;736.88;;;6.20;99.90;;;;;;5062257;28;20036;-85
2023/12/14 10:30:15;;;;;;;836.05;764.08;;;5.80;99.90;;;;;;5058433;28;20509;-84
2023/12/14 10:32:41;;;;;;;884.00;804.83;;;5.70;99.90;;;;;;5061836;28;20083;-85
2023/12/14 10:35:07;;;;;;;824.45;757.25;;;5.80;99.90;;;;;;5060047;28;20056;-85
2023/12/14 10:37:37;;;;;;;803.03;740.38;;;5.80;99.90;;;;;;5072809;28;20565;-84
2023/12/14 10:40:06;;;;;;;854.72;781.67;;;6.30;99.90;;;;;;5064872;28;20071;-83
2023/12/14 10:42:34;;;;;;;882.45;809.58;;;5.80;99.90;;;;;;5060131;28;20071;-85
2023/12/14 10:45:02;;;;;;;870.03;797.88;;;7.20;99.90;;;;;;5053825;28;20045;-85
2023/12/14 10:47:28;;;;;;;958.40;870.42;;;5.90;99.90;;;;;;5056698;28;20032;-84
2023/12/14 10:49:56;;;;;;;926.15;847.65;;;5.90;99.90;;;;;;5054942;28;20033;-83
2023/12/14 10:52:23;;;;;;;937.58;859.83;;;5.90;99.90;;;;;;5080089;28;20028;-87
2023/12/14 10:54:56;;;;;;;948.58;863.97;;;6.80;99.90;;;;;;5061970;28;20051;-86
2023/12/14 10:57:22;;;;;;;936.83;855.38;;;5.90;99.90;;;;;;5050043;28;20044;-86
2023/12/14 10:59:59;;;;;;;911.83;834.30;;;6.00;99.90;;;;;;5075714;28;20049;-86
2023/12/14 11:02:25;;;;;;;941.17;856.95;;;6.00;99.90;;;;;;5060049;28;20045;-87
2023/12/14 11:05:04;;;;;;;892.17;815.15;;;6.70;99.90;;;;;;5059813;28;20071;-88
2023/12/14 11:07:54;;;;;;;931.53;852.83;;;6.00;99.90;;;;;;5048545;28;20045;-85
2023/12/14 11:10:29;;;;;;;903.70;824.50;;;6.00;99.90;;;;;;5080129;28;20053;-86
2023/12/14 11:12:57;;;;;;;918.72;838.80;;;6.00;99.90;;;;;;5067083;28;20037;-88
2023/12/14 11:15:23;;;;;;;879.95;800.22;;;6.50;99.90;;;;;;5047460;28;20075;-82
2023/12/14 11:18:10;;;;;;;898.88;823.28;;;6.00;99.90;;;;;;5045896;28;20036;-82
2023/12/14 11:20:49;;;;;;;892.80;817.83;;;6.90;99.90;;;;;;5062871;28;20123;-82
2023/12/14 11:23:36;;;;;;;929.03;843.90;;;6.10;99.90;;;;;;5061870;28;20047;-82
2023/12/14 11:26:08;;;;;;;897.05;822.67;;;6.10;99.90;;;;;;5038200;28;20108;-82
2023/12/14 11:28:45;;;;;;;946.85;861.28;;;6.10;99.90;;;;;;5061645;28;20036;-82
2023/12/14 11:31:12;;;;;;;932.85;850.45;;;6.10;99.90;;;;;;5045931;28;20055;-81
2023/12/14 11:33:38;;;;;;;880.58;802.90;;;6.10;99.90;;;;;;5047138;28;20040;-81
2023/12/14 11:36:08;;;;;;;963.75;870.35;;;6.10;99.90;;;;;;5064117;28;20570;-81
2023/12/14 11:38:36;;;;;;;859.00;786.13;;;6.20;99.90;;;;;;5043741;28;20040;-81
2023/12/14 11:41:02;;;;;;;960.72;874.72;;;6.30;99.90;;;;;;5061829;28;20036;-81
2023/12/14 11:43:27;;;;;;;977.25;887.33;;;6.30;99.90;;;;;;5062592;28;20055;-82
2023/12/14 11:46:03;;;;;;;1014.63;912.38;;;7.10;99.90;;;;;;5061821;28;20144;-82
2023/12/14 11:48:28;;;;;;;943.70;863.80;;;6.30;99.90;;;;;;5026571;28;20116;-82
2023/12/14 11:50:56;;;;;;;947.67;863.35;;;6.40;99.90;;;;;;5063040;28;20079;-82
2023/12/14 11:53:22;;;;;;;982.78;887.90;;;6.40;99.90;;;;;;5064559;28;20036;-82
2023/12/14 11:55:49;;;;;;;946.25;865.60;;;6.40;99.90;;;;;;5044872;28;20095;-83
2023/12/14 11:58:15;;;;;;;982.13;889.05;;;7.50;99.90;;;;;;5057445;28;20408;-84
2023/12/14 12:00:41;;;;;;;980.08;892.13;;;6.40;99.90;;;;;;5054233;28;20037;-84
2023/12/14 12:03:14;;;;;;;972.15;884.00;;;6.40;99.90;;;;;;5043022;28;20039;-84
2023/12/14 12:05:42;;;;;;;988.10;897.55;;;6.40;99.90;;;;;;5044710;28;20037;-84
2023/12/14 12:08:09;;;;;;;920.10;837.25;;;7.40;99.90;;;;;;5043854;28;20208;-84
2023/12/14 12:10:35;;;;;;;970.67;885.08;;;6.80;99.90;;;;;;5048018;28;20044;-84
2023/12/14 12:13:04;;;;;;;956.17;871.50;;;6.40;99.90;;;;;;5048003;28;20037;-84
2023/12/14 12:15:31;;;;;;;986.35;892.60;;;6.70;99.90;;;;;;5046387;28;20043;-84